Time;durP1;ratioP1;P1;durP2;ratioP2;P2;SDS_P1;SDS_P2;PMS_P1;PMS_P2;Temp;Humidity;BMP_temperature;BMP_pressure;BME280_temperature;BME280_humidity;BME280_pressure;Samples;Min_cycle;Max_cycle;Signal;HPM_P1;HPM_P2
2023/04/09 02:00:49;;;;;;;19.70;17.93;;;6.80;99.90;;;;;;5756453;23;20661;-77
2023/04/09 02:03:19;;;;;;;17.93;16.33;;;6.90;99.90;;;;;;4900734;29;20204;-76
2023/04/09 02:05:50;;;;;;;18.07;16.47;;;6.80;99.90;;;;;;4901692;29;20248;-76
2023/04/09 02:08:21;;;;;;;18.57;16.90;;;6.90;99.90;;;;;;4912111;29;20211;-77
2023/04/09 02:10:52;;;;;;;20.63;18.70;;;6.80;99.90;;;;;;4904711;29;20227;-77
2023/04/09 02:13:20;;;;;;;19.63;17.73;;;6.80;99.90;;;;;;4891491;29;20201;-78
2023/04/09 02:15:50;;;;;;;20.33;18.33;;;6.80;99.90;;;;;;4896073;29;20243;-77
2023/04/09 02:18:27;;;;;;;20.37;18.27;;;6.80;99.90;;;;;;4883150;29;20218;-77
2023/04/09 02:20:54;;;;;;;21.17;19.23;;;6.80;99.90;;;;;;4896906;29;20620;-76
2023/04/09 02:23:21;;;;;;;19.53;17.63;;;6.80;99.90;;;;;;4895708;29;20201;-75
2023/04/09 02:25:49;;;;;;;18.83;17.00;;;6.80;99.90;;;;;;4884438;29;20200;-77
2023/04/09 02:28:16;;;;;;;17.67;16.07;;;6.80;99.90;;;;;;4882691;29;20200;-77
2023/04/09 02:30:42;;;;;;;17.70;16.10;;;6.80;99.90;;;;;;4880994;29;20234;-76
2023/04/09 02:33:11;;;;;;;17.63;16.03;;;6.80;99.90;;;;;;4888451;29;20697;-76
2023/04/09 02:35:37;;;;;;;19.90;18.00;;;6.80;99.90;;;;;;4882888;29;20261;-76
2023/04/09 02:38:04;;;;;;;19.60;17.60;;;6.80;99.90;;;;;;4884939;29;20205;-76
2023/04/09 02:40:31;;;;;;;17.70;16.10;;;6.80;99.90;;;;;;4884758;29;20203;-77
2023/04/09 02:42:58;;;;;;;16.70;15.27;;;6.80;99.90;;;;;;4885481;29;20207;-76
2023/04/09 02:45:25;;;;;;;18.80;17.00;;;6.80;99.90;;;;;;4881885;29;20239;-76
2023/04/09 02:47:52;;;;;;;17.40;15.77;;;6.80;99.90;;;;;;4885509;29;20216;-76
2023/04/09 02:50:20;;;;;;;20.20;18.20;;;6.80;99.90;;;;;;4886857;29;20203;-77
2023/04/09 02:52:52;;;;;;;18.97;16.97;;;6.80;99.90;;;;;;4884233;29;20728;-79
2023/04/09 02:55:21;;;;;;;17.90;16.10;;;6.80;99.90;;;;;;4887128;29;20229;-77
2023/04/09 02:57:48;;;;;;;17.67;16.07;;;6.70;99.90;;;;;;4891957;29;20204;-76
2023/04/09 03:00:15;;;;;;;19.77;17.77;;;6.70;99.90;;;;;;4885964;29;20217;-75
2023/04/09 03:02:42;;;;;;;19.30;17.50;;;6.70;99.90;;;;;;4882142;29;20228;-77
2023/04/09 03:05:09;;;;;;;19.10;17.30;;;6.70;99.90;;;;;;4887361;29;20200;-76
2023/04/09 03:07:37;;;;;;;18.03;16.37;;;6.70;99.90;;;;;;4879008;29;20486;-76
2023/04/09 03:10:05;;;;;;;17.43;15.93;;;6.70;99.90;;;;;;4884649;29;20281;-77
2023/04/09 03:12:31;;;;;;;17.57;15.97;;;6.70;99.90;;;;;;4884394;29;20259;-77
2023/04/09 03:14:59;;;;;;;20.67;18.77;;;6.80;99.90;;;;;;4892852;29;20301;-76
2023/04/09 03:17:26;;;;;;;20.23;18.33;;;6.80;99.90;;;;;;4899056;29;20201;-77
2023/04/09 03:19:52;;;;;;;19.80;17.80;;;6.70;99.90;;;;;;4897823;29;20208;-76
2023/04/09 03:22:20;;;;;;;19.50;17.80;;;6.70;99.90;;;;;;4888028;29;20310;-76
2023/04/09 03:24:52;;;;;;;19.43;17.67;;;6.80;99.90;;;;;;4892503;29;20412;-76
2023/04/09 03:27:19;;;;;;;21.63;19.53;;;6.80;99.90;;;;;;4889255;29;20253;-76
2023/04/09 03:29:50;;;;;;;21.80;19.73;;;6.70;99.90;;;;;;4886717;29;20200;-76
2023/04/09 03:32:17;;;;;;;20.00;18.10;;;6.70;99.90;;;;;;4885376;29;20218;-76
2023/04/09 03:34:44;;;;;;;19.27;17.37;;;6.70;99.90;;;;;;4881888;29;20309;-82
2023/04/09 03:37:11;;;;;;;18.37;16.67;;;6.70;99.90;;;;;;4887984;29;20211;-76
2023/04/09 03:39:38;;;;;;;19.63;17.80;;;6.70;99.90;;;;;;4883494;29;20449;-76
2023/04/09 03:42:06;;;;;;;20.97;18.77;;;6.70;99.90;;;;;;4882643;29;20286;-77
2023/04/09 03:44:43;;;;;;;19.80;17.83;;;6.70;99.90;;;;;;4896965;29;20202;-79
2023/04/09 03:47:14;;;;;;;18.67;16.77;;;6.60;99.90;;;;;;4889156;29;20204;-78
2023/04/09 03:49:41;;;;;;;20.40;18.50;;;6.60;99.90;;;;;;4897580;29;20307;-76
2023/04/09 03:52:20;;;;;;;19.73;17.93;;;6.60;99.90;;;;;;4896764;29;20228;-78
2023/04/09 03:54:54;;;;;;;20.47;18.57;;;6.50;99.90;;;;;;4897177;29;20225;-76
2023/04/09 03:57:25;;;;;;;20.20;18.27;;;6.50;99.90;;;;;;4896207;29;20207;-77
2023/04/09 03:59:54;;;;;;;20.77;18.77;;;6.50;99.90;;;;;;4896097;29;20681;-76
2023/04/09 04:02:25;;;;;;;20.07;18.17;;;6.50;99.90;;;;;;4893040;29;20241;-77
2023/04/09 04:04:59;;;;;;;18.90;17.20;;;6.50;99.90;;;;;;4895758;29;20251;-78
2023/04/09 04:07:32;;;;;;;20.07;18.07;;;6.50;99.90;;;;;;4904724;29;20234;-78
2023/04/09 04:10:06;;;;;;;19.63;17.73;;;6.50;99.90;;;;;;4899547;29;20639;-76
2023/04/09 04:12:35;;;;;;;19.97;17.97;;;6.50;99.90;;;;;;4910235;29;20249;-77
2023/04/09 04:15:12;;;;;;;20.37;18.43;;;6.50;99.90;;;;;;4898738;29;20228;-78
2023/04/09 04:17:47;;;;;;;22.00;19.90;;;6.50;99.90;;;;;;4893783;29;20710;-76
2023/04/09 04:20:23;;;;;;;19.13;17.33;;;6.50;99.90;;;;;;4895704;29;20671;-78
2023/04/09 04:22:57;;;;;;;18.00;16.20;;;6.50;99.90;;;;;;4899868;29;20724;-78
2023/04/09 04:25:25;;;;;;;20.00;18.00;;;6.50;99.90;;;;;;4894013;29;20274;-77
2023/04/09 04:27:55;;;;;;;21.43;19.17;;;6.50;99.90;;;;;;4884312;29;20295;-81
2023/04/09 04:30:26;;;;;;;23.53;21.00;;;6.40;99.90;;;;;;4895799;29;20275;-82
2023/04/09 04:32:59;;;;;;;21.23;19.13;;;6.40;99.90;;;;;;4891404;29;20210;-78
2023/04/09 04:35:28;;;;;;;19.77;17.73;;;6.40;99.90;;;;;;4889551;29;20714;-78
2023/04/09 04:37:58;;;;;;;19.20;17.37;;;6.50;99.90;;;;;;4884171;29;20287;-80
2023/04/09 04:40:27;;;;;;;20.30;18.37;;;6.50;99.90;;;;;;4920853;29;20203;-78
2023/04/09 04:43:00;;;;;;;18.83;17.03;;;6.50;99.90;;;;;;4897080;29;20290;-81
2023/04/09 04:45:28;;;;;;;17.80;16.10;;;6.50;99.90;;;;;;4891788;29;20204;-80
2023/04/09 04:48:00;;;;;;;20.87;18.73;;;6.40;99.90;;;;;;4891287;29;20234;-80
2023/04/09 04:50:27;;;;;;;22.13;19.93;;;6.40;99.90;;;;;;4900804;29;20222;-80
2023/04/09 04:53:04;;;;;;;20.50;18.50;;;6.40;99.90;;;;;;4900490;29;20204;-81
2023/04/09 04:55:39;;;;;;;20.73;18.63;;;6.40;99.90;;;;;;4900797;29;20275;-81
2023/04/09 04:58:08;;;;;;;21.43;19.43;;;6.40;99.90;;;;;;4893071;29;20210;-80
2023/04/09 05:00:44;;;;;;;20.30;18.50;;;6.50;99.90;;;;;;4900532;29;20254;-81
2023/04/09 05:03:12;;;;;;;20.70;18.70;;;6.50;99.90;;;;;;4900823;29;20232;-81
2023/04/09 05:05:51;;;;;;;21.63;19.47;;;6.50;99.90;;;;;;4900005;29;20200;-79
2023/04/09 05:08:19;;;;;;;20.27;18.47;;;6.40;99.90;;;;;;4897827;29;20231;-79
2023/04/09 05:10:50;;;;;;;21.80;19.43;;;6.50;99.90;;;;;;4901609;29;20224;-77
2023/04/09 05:13:18;;;;;;;19.93;18.13;;;6.50;99.90;;;;;;4901993;29;20203;-78
2023/04/09 05:15:45;;;;;;;20.53;18.63;;;6.50;99.90;;;;;;4899000;29;20227;-77
2023/04/09 05:18:12;;;;;;;21.20;19.20;;;6.50;99.90;;;;;;4894256;29;20204;-80
2023/04/09 05:20:39;;;;;;;20.23;18.30;;;6.60;99.90;;;;;;4897565;29;20255;-79
2023/04/09 05:23:11;;;;;;;20.67;18.77;;;6.60;99.90;;;;;;4898597;29;20194;-78
2023/04/09 05:25:41;;;;;;;21.93;19.93;;;6.60;99.90;;;;;;4899204;29;20705;-79
2023/04/09 05:28:15;;;;;;;19.67;17.87;;;6.70;99.90;;;;;;4899502;29;20594;-84
2023/04/09 05:30:47;;;;;;;19.30;17.50;;;6.80;99.90;;;;;;4899386;29;20663;-78
2023/04/09 05:33:19;;;;;;;19.10;17.37;;;6.80;99.90;;;;;;4897226;29;20204;-81
2023/04/09 05:35:46;;;;;;;20.80;19.00;;;6.90;99.90;;;;;;4899198;29;20223;-81
2023/04/09 05:38:13;;;;;;;20.53;18.63;;;6.90;99.90;;;;;;4900884;29;20199;-78
2023/04/09 05:40:43;;;;;;;19.80;18.00;;;6.90;99.90;;;;;;4897491;29;20231;-80
2023/04/09 05:43:12;;;;;;;20.70;18.93;;;7.00;99.90;;;;;;4900610;29;20210;-78
2023/04/09 05:45:42;;;;;;;14.80;13.07;;;7.10;99.90;;;;;;4900047;29;20207;-78
2023/04/09 05:48:11;;;;;;;17.23;14.20;;;7.40;99.90;;;;;;4899695;29;20742;-78
2023/04/09 05:50:39;;;;;;;15.70;14.03;;;7.90;99.90;;;;;;4898372;29;20674;-79
2023/04/09 05:53:06;;;;;;;19.93;18.13;;;8.50;99.90;;;;;;4904947;29;20196;-78
2023/04/09 05:55:38;;;;;;;16.63;14.40;;;9.10;99.90;;;;;;4898988;29;20698;-78
2023/04/09 05:58:06;;;;;;;19.60;17.80;;;9.40;99.90;;;;;;4899676;29;20637;-79
2023/04/09 06:00:33;;;;;;;18.93;17.23;;;9.60;99.90;;;;;;4898218;29;20205;-79
2023/04/09 06:03:00;;;;;;;17.80;16.17;;;9.70;99.90;;;;;;4898510;29;20204;-79
2023/04/09 06:05:28;;;;;;;15.67;14.07;;;9.90;99.90;;;;;;4898366;29;20667;-78
2023/04/09 06:07:55;;;;;;;16.20;14.53;;;9.90;99.90;;;;;;4896844;29;20763;-78
2023/04/09 06:10:22;;;;;;;19.00;17.20;;;9.90;99.90;;;;;;4898285;29;20205;-78
2023/04/09 06:12:49;;;;;;;18.53;16.77;;;10.00;99.90;;;;;;4899348;29;20247;-78
2023/04/09 06:15:17;;;;;;;20.03;18.20;;;10.00;99.90;;;;;;4899831;29;20314;-78
2023/04/09 06:17:44;;;;;;;17.97;16.27;;;10.10;99.90;;;;;;4898310;29;20211;-78
2023/04/09 06:20:11;;;;;;;18.13;16.40;;;10.20;99.90;;;;;;4893807;29;20277;-78
2023/04/09 06:22:39;;;;;;;16.63;15.07;;;10.30;99.90;;;;;;4882233;29;20219;-78
2023/04/09 06:25:07;;;;;;;16.00;12.63;;;10.50;99.90;;;;;;4886743;29;20195;-78
2023/04/09 06:27:33;;;;;;;16.90;14.10;;;10.60;99.90;;;;;;4888774;29;20277;-78
2023/04/09 06:30:00;;;;;;;19.63;17.70;;;10.60;99.90;;;;;;4890907;29;20253;-80
2023/04/09 06:32:27;;;;;;;17.10;15.23;;;10.70;99.90;;;;;;4887311;29;20239;-78
2023/04/09 06:34:54;;;;;;;16.60;14.93;;;10.70;99.90;;;;;;4887846;29;20263;-79
2023/04/09 06:37:21;;;;;;;18.80;16.83;;;10.80;99.90;;;;;;4887032;29;20460;-80
2023/04/09 06:39:49;;;;;;;16.47;14.87;;;10.60;99.90;;;;;;4888469;29;20227;-80
2023/04/09 06:42:15;;;;;;;16.50;14.73;;;10.60;99.90;;;;;;4886580;29;20242;-79
2023/04/09 06:44:58;;;;;;;18.33;16.53;;;10.80;99.90;;;;;;4886401;29;20202;-77
2023/04/09 06:47:24;;;;;;;17.10;15.50;;;10.70;99.90;;;;;;4886349;29;20211;-76
2023/04/09 06:49:51;;;;;;;17.03;15.33;;;10.70;99.90;;;;;;4895997;29;20242;-81
2023/04/09 06:52:19;;;;;;;17.67;15.97;;;10.80;99.90;;;;;;4895594;29;20760;-80
2023/04/09 06:54:46;;;;;;;17.13;15.33;;;10.90;99.90;;;;;;4897747;29;20279;-79
2023/04/09 06:57:14;;;;;;;15.73;14.13;;;11.00;99.90;;;;;;4900421;29;20762;-80
2023/04/09 06:59:41;;;;;;;16.37;14.10;;;11.20;99.90;;;;;;4893558;29;20203;-80
2023/04/09 07:02:08;;;;;;;14.83;13.37;;;11.40;99.90;;;;;;4897718;29;20243;-80
2023/04/09 07:04:35;;;;;;;12.27;11.07;;;11.70;99.90;;;;;;4897569;29;20233;-80
2023/04/09 07:07:02;;;;;;;13.17;11.77;;;12.10;99.90;;;;;;4890254;29;20193;-77
2023/04/09 07:09:30;;;;;;;13.53;12.10;;;12.20;99.90;;;;;;4894835;29;20252;-79
2023/04/09 07:11:57;;;;;;;14.00;12.50;;;12.30;99.90;;;;;;4898340;29;20224;-79
2023/04/09 07:14:25;;;;;;;12.80;11.50;;;12.30;99.90;;;;;;4901649;29;20227;-80
2023/04/09 07:16:52;;;;;;;13.60;11.43;;;12.40;99.90;;;;;;4897044;29;20228;-79
2023/04/09 07:19:18;;;;;;;12.53;11.23;;;12.30;99.90;;;;;;4897339;29;20221;-78
2023/04/09 07:21:45;;;;;;;13.37;11.97;;;12.50;99.90;;;;;;4898370;29;20225;-79
2023/04/09 07:24:12;;;;;;;12.37;11.07;;;13.00;99.90;;;;;;4897360;29;20236;-78
2023/04/09 07:26:39;;;;;;;10.90;9.80;;;13.20;99.90;;;;;;4897410;29;20676;-79
2023/04/09 07:29:06;;;;;;;12.97;11.73;;;13.40;99.90;;;;;;4898622;29;20209;-79
2023/04/09 07:31:34;;;;;;;12.30;11.03;;;13.80;99.90;;;;;;4896943;29;20653;-79
2023/04/09 07:34:01;;;;;;;11.63;10.43;;;13.60;99.90;;;;;;4897780;29;20235;-78
2023/04/09 07:36:28;;;;;;;11.43;10.20;;;13.50;99.90;;;;;;4897693;29;20445;-79
2023/04/09 07:38:55;;;;;;;10.77;9.67;;;13.80;99.90;;;;;;4899391;29;20218;-79
2023/04/09 07:41:22;;;;;;;10.63;9.53;;;14.20;99.90;;;;;;4897939;29;20708;-80
2023/04/09 07:43:48;;;;;;;11.23;10.13;;;14.50;99.90;;;;;;4899829;29;20235;-79
2023/04/09 07:46:19;;;;;;;9.80;8.80;;;14.90;99.90;;;;;;4902570;29;20273;-81
2023/04/09 07:48:48;;;;;;;10.57;9.47;;;14.90;99.90;;;;;;4902926;29;20210;-79
2023/04/09 07:51:15;;;;;;;11.73;9.83;;;14.70;99.90;;;;;;4900553;29;20230;-80
2023/04/09 07:53:45;;;;;;;10.97;9.87;;;14.50;99.90;;;;;;4898679;29;20231;-79
2023/04/09 07:56:12;;;;;;;10.43;9.33;;;15.00;99.90;;;;;;4900651;29;20234;-77
2023/04/09 07:58:39;;;;;;;11.33;9.70;;;14.50;99.90;;;;;;4899404;29;20216;-79
2023/04/09 08:01:06;;;;;;;10.90;9.80;;;13.90;99.90;;;;;;4896950;29;20633;-82
2023/04/09 08:03:34;;;;;;;12.23;11.03;;;13.80;99.90;;;;;;4900300;29;20265;-80
2023/04/09 08:06:02;;;;;;;11.93;10.73;;;13.90;99.90;;;;;;4900303;29;20241;-78
2023/04/09 08:08:29;;;;;;;10.93;9.83;;;13.50;99.90;;;;;;4897447;29;20212;-80
2023/04/09 08:10:56;;;;;;;12.50;11.30;;;13.10;99.90;;;;;;4894233;29;20226;-79
2023/04/09 08:13:23;;;;;;;11.70;10.53;;;12.90;99.90;;;;;;4887165;29;20198;-78
2023/04/09 08:15:51;;;;;;;10.80;9.70;;;12.50;99.90;;;;;;4895849;29;20322;-81
2023/04/09 08:18:17;;;;;;;9.40;8.50;;;12.50;99.90;;;;;;4889330;29;20261;-76
2023/04/09 08:20:45;;;;;;;10.27;8.87;;;12.50;99.90;;;;;;4890091;29;20360;-79
2023/04/09 08:23:13;;;;;;;9.53;8.53;;;12.30;99.90;;;;;;4889369;29;20284;-76
2023/04/09 08:25:40;;;;;;;10.53;8.60;;;12.10;99.90;;;;;;4883707;29;20474;-76
2023/04/09 08:28:07;;;;;;;9.17;8.23;;;11.90;99.90;;;;;;4880801;29;20209;-74
2023/04/09 08:30:34;;;;;;;9.30;8.40;;;11.90;99.90;;;;;;4883403;29;20205;-76
2023/04/09 08:33:00;;;;;;;10.40;9.40;;;11.90;99.90;;;;;;4893480;29;20240;-75
2023/04/09 08:35:28;;;;;;;9.50;8.50;;;11.80;99.90;;;;;;4883317;29;20207;-75
2023/04/09 08:37:55;;;;;;;9.03;8.13;;;12.00;99.90;;;;;;4884786;29;20693;-75
2023/04/09 08:40:24;;;;;;;9.20;8.20;;;12.20;99.90;;;;;;4886246;29;20220;-75
2023/04/09 08:42:54;;;;;;;7.63;6.93;;;12.20;99.90;;;;;;4885493;29;20208;-76
2023/04/09 08:45:21;;;;;;;7.90;7.10;;;13.10;99.90;;;;;;4883482;29;20205;-77
2023/04/09 08:47:49;;;;;;;7.80;7.00;;;13.70;99.90;;;;;;4887543;29;20236;-75
2023/04/09 08:50:16;;;;;;;6.80;6.13;;;14.10;99.90;;;;;;4886233;29;20202;-78
2023/04/09 08:52:45;;;;;;;6.33;5.63;;;14.40;99.90;;;;;;4884493;29;20670;-75
2023/04/09 08:55:12;;;;;;;6.20;5.57;;;14.30;99.90;;;;;;4885975;29;20197;-77
2023/04/09 08:57:40;;;;;;;6.43;5.33;;;14.70;99.90;;;;;;4882323;29;20284;-77
2023/04/09 09:00:08;;;;;;;5.87;5.27;;;15.00;99.90;;;;;;4883897;29;20207;-76
2023/04/09 09:02:35;;;;;;;5.73;5.23;;;15.20;99.90;;;;;;4869231;29;20745;-77
2023/04/09 09:05:02;;;;;;;5.97;5.37;;;15.40;99.90;;;;;;4881472;29;20210;-76
2023/04/09 09:07:29;;;;;;;5.97;5.37;;;15.80;99.90;;;;;;4884053;29;20201;-75
2023/04/09 09:09:58;;;;;;;5.87;5.27;;;16.20;99.90;;;;;;4886503;29;20673;-76
2023/04/09 09:12:35;;;;;;;6.10;5.13;;;16.30;99.90;;;;;;4896154;29;20223;-77
2023/04/09 09:15:05;;;;;;;5.43;4.93;;;16.60;99.90;;;;;;4894909;29;20282;-76
2023/04/09 09:17:31;;;;;;;6.80;5.83;;;16.50;99.90;;;;;;4913308;29;20224;-76
2023/04/09 09:19:58;;;;;;;7.20;5.50;;;16.50;99.90;;;;;;4878983;29;20201;-76
2023/04/09 09:22:25;;;;;;;6.47;5.77;;;16.60;99.90;;;;;;4883872;29;20225;-76
2023/04/09 09:24:53;;;;;;;6.43;5.50;;;16.60;99.90;;;;;;4886320;29;20207;-76
2023/04/09 09:27:38;;;;;;;7.30;6.07;;;16.30;99.90;;;;;;4885303;29;20254;-79
2023/04/09 09:30:08;;;;;;;6.47;5.77;;;15.50;99.90;;;;;;4884392;29;20269;-78
2023/04/09 09:32:35;;;;;;;6.87;5.87;;;15.10;99.90;;;;;;4886045;29;20225;-78
2023/04/09 09:35:03;;;;;;;6.53;5.83;;;14.50;99.90;;;;;;4887167;29;20248;-77
2023/04/09 09:37:31;;;;;;;7.60;6.67;;;14.50;99.90;;;;;;4884934;29;20787;-80
2023/04/09 09:39:58;;;;;;;7.87;6.03;;;15.00;99.90;;;;;;4885506;29;20701;-78
2023/04/09 09:42:26;;;;;;;6.60;5.90;;;14.80;99.90;;;;;;4891136;29;20245;-79
2023/04/09 09:44:54;;;;;;;7.97;7.17;;;14.60;99.90;;;;;;4884394;29;20225;-79
2023/04/09 09:47:24;;;;;;;8.93;8.03;;;13.80;99.90;;;;;;4889035;29;20207;-78
2023/04/09 09:49:51;;;;;;;8.43;7.20;;;13.10;99.90;;;;;;4886870;29;20198;-77
2023/04/09 09:52:24;;;;;;;8.27;7.50;;;12.60;99.90;;;;;;4885303;29;20724;-79
2023/04/09 09:54:52;;;;;;;8.50;7.70;;;12.30;99.90;;;;;;4882886;29;20250;-75
2023/04/09 09:57:22;;;;;;;9.03;8.13;;;12.40;99.90;;;;;;4886272;29;20223;-76
2023/04/09 09:59:53;;;;;;;8.90;8.00;;;12.30;99.90;;;;;;4880336;29;20206;-76
2023/04/09 10:02:25;;;;;;;9.80;8.67;;;12.10;99.90;;;;;;4884159;29;20229;-79
2023/04/09 10:04:52;;;;;;;13.00;11.90;;;12.00;99.90;;;;;;4886464;29;20213;-77
2023/04/09 10:07:21;;;;;;;12.23;11.13;;;12.10;99.90;;;;;;4887735;29;20276;-77
2023/04/09 10:09:51;;;;;;;11.50;10.50;;;12.20;99.90;;;;;;4884435;29;20235;-76
2023/04/09 10:12:22;;;;;;;12.87;11.77;;;12.50;99.90;;;;;;4883613;29;20225;-76
2023/04/09 10:14:50;;;;;;;11.10;10.20;;;12.70;99.90;;;;;;4886735;29;20201;-80
2023/04/09 10:17:17;;;;;;;8.30;7.53;;;13.40;99.90;;;;;;4882668;29;20222;-77
2023/04/09 10:19:54;;;;;;;7.70;6.90;;;13.80;99.90;;;;;;4881304;29;20285;-78
2023/04/09 10:22:26;;;;;;;7.97;7.27;;;14.30;99.90;;;;;;4886044;29;20295;-77
2023/04/09 10:24:54;;;;;;;8.30;7.50;;;14.40;99.90;;;;;;4887911;29;20254;-79
2023/04/09 10:27:22;;;;;;;7.20;6.50;;;14.40;99.90;;;;;;4888733;29;20201;-80
2023/04/09 10:29:50;;;;;;;7.57;6.73;;;14.30;99.90;;;;;;4899080;29;20236;-79
2023/04/09 10:32:20;;;;;;;7.30;6.50;;;14.00;99.90;;;;;;4906721;29;20299;-80
2023/04/09 10:34:49;;;;;;;8.20;6.40;;;13.80;99.90;;;;;;4885957;29;20219;-76
2023/04/09 10:37:20;;;;;;;7.63;5.53;;;13.90;99.90;;;;;;4883126;29;20322;-76
2023/04/09 10:39:48;;;;;;;6.30;5.27;;;13.90;99.90;;;;;;4877741;29;20219;-76
2023/04/09 10:42:19;;;;;;;7.33;6.60;;;14.00;99.90;;;;;;4879149;29;20220;-75
2023/04/09 10:44:46;;;;;;;8.37;7.33;;;13.50;99.90;;;;;;4882358;29;20206;-75
2023/04/09 10:47:32;;;;;;;7.60;6.90;;;13.10;99.90;;;;;;4882684;29;20200;-75
2023/04/09 10:50:15;;;;;;;7.47;6.70;;;13.10;99.90;;;;;;4883426;29;20208;-76
2023/04/09 10:52:43;;;;;;;8.70;7.23;;;13.30;99.90;;;;;;4878999;29;20247;-75
2023/04/09 10:55:10;;;;;;;8.20;7.40;;;13.30;99.90;;;;;;4884317;29;20211;-76
2023/04/09 10:57:37;;;;;;;8.00;7.30;;;13.30;99.90;;;;;;4882299;29;20710;-76
2023/04/09 11:00:05;;;;;;;7.50;6.80;;;13.40;99.90;;;;;;4879000;29;20232;-76
2023/04/09 11:03:06;;;;;;;7.97;7.17;;;13.30;99.90;;;;;;4881929;29;20231;-76
2023/04/09 11:05:37;;;;;;;10.70;9.90;;;12.80;99.90;;;;;;4877887;29;20211;-76
2023/04/09 11:08:09;;;;;;;11.27;10.37;;;12.90;99.90;;;;;;4885156;29;20701;-76
2023/04/09 11:10:36;;;;;;;11.60;10.50;;;13.10;99.90;;;;;;4881150;29;20960;-77
2023/04/09 11:13:04;;;;;;;9.17;8.43;;;13.20;99.90;;;;;;4881655;29;20226;-76
2023/04/09 11:15:32;;;;;;;7.43;6.73;;;13.60;99.90;;;;;;4893558;29;20192;-76
2023/04/09 11:17:59;;;;;;;6.77;5.97;;;13.80;99.90;;;;;;4897098;29;20221;-75
2023/04/09 11:20:29;;;;;;;6.43;5.70;;;14.00;99.90;;;;;;4898509;29;20217;-78
2023/04/09 11:22:59;;;;;;;7.07;5.93;;;14.20;99.90;;;;;;4907400;29;20233;-83
2023/04/09 11:25:28;;;;;;;7.97;6.47;;;14.30;99.90;;;;;;4894380;29;20248;-80
2023/04/09 11:27:55;;;;;;;7.07;6.37;;;14.20;99.90;;;;;;4890634;29;20194;-79
2023/04/09 11:30:22;;;;;;;7.40;6.70;;;14.00;99.90;;;;;;4884049;29;20489;-78
2023/04/09 11:32:49;;;;;;;6.57;5.97;;;14.00;99.90;;;;;;4885156;29;20207;-78
2023/04/09 11:35:18;;;;;;;7.33;6.63;;;14.00;99.90;;;;;;4887293;29;20224;-80
2023/04/09 11:37:46;;;;;;;7.03;6.33;;;13.80;99.90;;;;;;4888556;29;20231;-78
2023/04/09 11:40:19;;;;;;;7.23;6.53;;;13.80;99.90;;;;;;4887868;29;20264;-75
2023/04/09 11:42:48;;;;;;;6.67;5.77;;;13.80;99.90;;;;;;4883641;29;20225;-75
2023/04/09 11:45:16;;;;;;;6.80;6.10;;;13.80;99.90;;;;;;4886044;29;20665;-76
2023/04/09 11:47:45;;;;;;;6.50;5.90;;;13.90;99.90;;;;;;4886547;29;20232;-75
2023/04/09 11:50:13;;;;;;;7.20;6.50;;;13.90;99.90;;;;;;4885053;29;20289;-75
2023/04/09 11:52:41;;;;;;;6.73;6.13;;;13.80;99.90;;;;;;4915584;29;20255;-77
2023/04/09 11:55:09;;;;;;;6.97;6.37;;;13.80;99.90;;;;;;4907316;29;20253;-77
2023/04/09 11:57:41;;;;;;;6.93;5.97;;;13.50;99.90;;;;;;4907543;29;20230;-76
2023/04/09 12:00:10;;;;;;;7.33;6.63;;;13.50;99.90;;;;;;4910511;29;20258;-76
2023/04/09 12:02:42;;;;;;;7.83;7.13;;;13.50;99.90;;;;;;4895674;29;20228;-76
2023/04/09 12:05:10;;;;;;;10.33;9.43;;;13.50;99.90;;;;;;4898428;29;20205;-77
2023/04/09 12:07:38;;;;;;;10.90;10.00;;;13.50;99.90;;;;;;4908483;29;20263;-77
2023/04/09 12:10:06;;;;;;;10.07;9.27;;;13.60;99.90;;;;;;4905267;29;20303;-77
2023/04/09 12:12:41;;;;;;;8.57;7.87;;;13.80;99.90;;;;;;4894262;29;20227;-76
2023/04/09 12:15:20;;;;;;;10.83;9.83;;;14.10;99.90;;;;;;4897646;29;20270;-76
2023/04/09 12:17:49;;;;;;;10.23;9.40;;;13.70;99.90;;;;;;4911273;29;20223;-77
2023/04/09 12:20:27;;;;;;;10.60;9.80;;;13.80;99.90;;;;;;4891603;29;20199;-77
2023/04/09 12:22:54;;;;;;;10.80;10.00;;;13.70;99.90;;;;;;4896888;29;20232;-77
2023/04/09 12:25:21;;;;;;;9.33;8.53;;;13.80;99.90;;;;;;4885299;29;20209;-75
2023/04/09 12:27:49;;;;;;;6.63;6.03;;;14.00;99.90;;;;;;4883115;29;20213;-76
2023/04/09 12:30:16;;;;;;;6.00;5.40;;;14.20;99.90;;;;;;4894823;29;20269;-75
2023/04/09 12:32:44;;;;;;;6.10;5.20;;;14.10;99.90;;;;;;4898704;29;20873;-75
2023/04/09 12:35:11;;;;;;;7.73;5.53;;;14.20;99.90;;;;;;4901778;29;20202;-75
2023/04/09 12:37:38;;;;;;;5.37;4.80;;;14.30;99.90;;;;;;4898587;29;20224;-75
2023/04/09 12:40:06;;;;;;;6.50;5.50;;;14.10;99.90;;;;;;4885928;29;20267;-74
2023/04/09 12:42:33;;;;;;;7.40;6.70;;;13.90;99.90;;;;;;4883911;29;20231;-75
2023/04/09 12:45:01;;;;;;;7.77;7.07;;;13.80;99.90;;;;;;4881676;29;20270;-75
2023/04/09 12:47:28;;;;;;;7.10;5.43;;;13.70;99.90;;;;;;4886012;29;20253;-76
2023/04/09 12:49:55;;;;;;;9.47;8.67;;;13.70;99.90;;;;;;4880825;29;20640;-76
2023/04/09 12:52:23;;;;;;;10.40;9.60;;;13.70;99.90;;;;;;4892075;29;20283;-76
2023/04/09 12:54:50;;;;;;;9.67;8.87;;;13.60;99.90;;;;;;4892451;29;20307;-76
2023/04/09 12:57:17;;;;;;;9.03;8.33;;;13.70;99.90;;;;;;4895033;29;20271;-76
2023/04/09 12:59:43;;;;;;;9.20;8.50;;;14.00;99.90;;;;;;4892618;29;20237;-80
2023/04/09 13:02:12;;;;;;;8.03;7.33;;;13.80;99.90;;;;;;4880598;29;20253;-77
2023/04/09 13:04:39;;;;;;;5.27;4.23;;;13.80;99.90;;;;;;4881349;29;20848;-82
2023/04/09 13:07:05;;;;;;;4.67;4.17;;;13.80;99.90;;;;;;4889937;29;20203;-78
2023/04/09 13:09:34;;;;;;;5.80;4.97;;;13.90;99.90;;;;;;4893069;29;20262;-81
2023/04/09 13:12:01;;;;;;;7.93;5.20;;;14.00;99.90;;;;;;4889291;29;20224;-80
2023/04/09 13:14:28;;;;;;;5.47;4.80;;;13.90;99.90;;;;;;4881476;29;20203;-78
2023/04/09 13:16:54;;;;;;;5.67;4.47;;;13.80;99.90;;;;;;4881952;29;20256;-77
2023/04/09 13:19:22;;;;;;;6.17;4.83;;;13.90;99.90;;;;;;4892575;29;20198;-78
2023/04/09 13:21:49;;;;;;;6.63;5.60;;;14.10;99.90;;;;;;4884362;29;20330;-78
2023/04/09 13:24:16;;;;;;;5.53;4.77;;;14.30;99.90;;;;;;4885691;29;20214;-81
2023/04/09 13:26:43;;;;;;;6.10;5.33;;;14.60;99.90;;;;;;4893703;29;20289;-79
2023/04/09 13:29:10;;;;;;;6.90;5.57;;;14.60;99.90;;;;;;4887483;29;20207;-79
2023/04/09 13:31:37;;;;;;;6.30;5.00;;;14.80;99.90;;;;;;4885419;29;20295;-78
2023/04/09 13:34:05;;;;;;;5.77;4.70;;;14.70;99.90;;;;;;4883252;29;20232;-80
2023/04/09 13:36:33;;;;;;;6.70;5.70;;;14.70;99.90;;;;;;4893195;29;20196;-79
2023/04/09 13:39:03;;;;;;;6.00;5.27;;;14.70;99.90;;;;;;4900029;29;20249;-79
2023/04/09 13:41:31;;;;;;;5.47;4.80;;;14.50;99.90;;;;;;4893096;29;20219;-74
2023/04/09 13:43:58;;;;;;;5.47;4.70;;;14.40;99.90;;;;;;4886280;29;20815;-79
2023/04/09 13:46:25;;;;;;;5.67;5.00;;;14.40;99.90;;;;;;4881291;29;20798;-79
2023/04/09 13:48:53;;;;;;;6.00;5.40;;;14.30;99.90;;;;;;4884997;29;20460;-78
2023/04/09 13:51:20;;;;;;;6.10;5.10;;;14.00;99.90;;;;;;4898327;29;20251;-77
2023/04/09 13:53:48;;;;;;;5.13;4.43;;;14.10;99.90;;;;;;4891060;29;20205;-77
2023/04/09 13:56:15;;;;;;;7.83;7.10;;;14.10;99.90;;;;;;4888212;29;20231;-77
2023/04/09 13:58:42;;;;;;;8.27;7.57;;;14.10;99.90;;;;;;4884698;29;20215;-78
2023/04/09 14:01:09;;;;;;;6.70;6.10;;;14.20;99.90;;;;;;4885449;29;20283;-76
2023/04/09 14:03:38;;;;;;;8.80;8.10;;;14.50;99.90;;;;;;4883721;29;20214;-77
2023/04/09 14:06:07;;;;;;;6.37;5.87;;;14.30;99.90;;;;;;4881851;29;20300;-78
2023/04/09 14:08:34;;;;;;;5.73;4.80;;;14.30;99.90;;;;;;4881093;29;20259;-77
2023/04/09 14:11:02;;;;;;;5.93;5.10;;;14.30;99.90;;;;;;4887244;29;20655;-78
2023/04/09 14:13:30;;;;;;;6.73;6.13;;;14.20;99.90;;;;;;4895375;29;20203;-80
2023/04/09 14:15:57;;;;;;;5.00;4.45;;;14.20;99.90;;;;;;4897863;29;20994;-78
2023/04/09 14:18:23;;;;;;;6.17;5.30;;;14.10;99.90;;;;;;4899216;29;20218;-77
2023/04/09 14:20:50;;;;;;;5.30;4.70;;;14.00;99.90;;;;;;4899295;29;20717;-77
2023/04/09 14:23:17;;;;;;;6.33;5.20;;;14.00;99.90;;;;;;4895345;29;20205;-78
2023/04/09 14:25:44;;;;;;;5.40;4.60;;;14.00;99.90;;;;;;4898943;29;20258;-77
2023/04/09 14:28:12;;;;;;;4.73;4.10;;;14.00;99.90;;;;;;4890372;29;20211;-77
2023/04/09 14:30:39;;;;;;;6.47;5.60;;;14.20;99.90;;;;;;4898944;29;20217;-78
2023/04/09 14:33:06;;;;;;;6.70;4.60;;;14.30;99.90;;;;;;4902365;29;20209;-78
2023/04/09 14:35:33;;;;;;;7.57;5.80;;;14.40;99.90;;;;;;4896733;29;20735;-78
2023/04/09 14:38:03;;;;;;;6.23;5.10;;;14.20;99.90;;;;;;4898387;29;20684;-77
2023/04/09 14:40:30;;;;;;;6.63;5.30;;;14.00;99.90;;;;;;4895994;29;20204;-81
2023/04/09 14:42:57;;;;;;;8.10;5.67;;;14.00;99.90;;;;;;4898575;29;20200;-79
2023/04/09 14:45:25;;;;;;;6.17;5.20;;;13.80;99.90;;;;;;4898080;29;20241;-81
2023/04/09 14:47:52;;;;;;;9.10;8.30;;;13.80;99.90;;;;;;4888533;29;20201;-81